Historical Weather Data

Soule Park Golf Course
1033 East Ojai Ave
Ojai, CA 93023
Date ET
(Inches)
Rain
(Inches)
Temp °F
Humidity
Avg
Wind MPH
Avg
Solar Wm2
Avg
High Ave Low
12/1/18 0.05 0.00 64.7 50.7 37.4 67 2.9 87
12/2/18 0.05 0.00 63.0 48.1 35.9 64 2.2 90
12/3/18 0.05 0.00 67.3 51.2 40.9 61 1.9 89
12/4/18 0.07 0.00 66.4 53.6 36.9 47 3.1 67
12/5/18 0.03 0.23 56.8 52.5 49.9 79 1.5 31
12/6/18 0.03 0.92 60.9 51.7 44.0 89 1.2 46
12/7/18 0.04 0.00 68.5 51.2 39.0 81 1.7 84
12/8/18 0.05 0.00 72.8 52.8 39.6 75 1.8 83
12/9/18 0.04 0.00 69.6 52.8 40.0 75 1.5 77
12/10/18 0.04 0.00 68.6 54.1 43.6 70 2.1 50
12/11/18 0.06 0.00 73.8 53.4 41.6 68 2.2 82
12/12/18 0.04 0.00 69.2 50.9 39.0 74 2.1 76
12/13/18 0.05 0.00 78.6 53.7 37.4 60 1.9 82
12/14/18 0.04 0.00 64.4 52.2 42.5 62 1.6 58
12/15/18 0.06 0.00 75.8 51.6 35.9 63 2.0 81
12/16/18 0.05 0.00 70.6 51.6 37.2 72 1.6 72
12/17/18 0.04 0.01 64.4 54.5 47.3 88 1.5 64
12/18/18 0.04 0.00 69.4 51.9 40.8 84 1.7 78
12/19/18 0.05 0.00 78.4 53.4 36.5 69 1.6 82
12/20/18 0.06 0.00 79.8 55.4 39.2 62 2.0 84
12/21/18 0.05 0.00 73.2 56.9 44.0 66 2.5 61
12/22/18 0.04 0.00 71.3 52.3 39.6 78 2.1 70
12/23/18 0.04 0.00 70.4 52.0 39.9 79 1.9 68
12/24/18 0.05 0.00 73.2 53.6 39.8 72 2.3 78
12/25/18 0.06 0.00 66.5 53.6 42.2 61 3.4 85
12/26/18 0.06 0.00 67.7 49.9 37.7 59 2.4 83
12/27/18 0.06 0.00 63.2 47.4 33.0 54 2.9 83
12/28/18 0.05 0.00 60.1 44.3 32.0 58 2.4 83
12/29/18 0.04 0.00 64.3 43.0 27.6 59 1.2 82
12/30/18 0.05 0.00 67.7 46.1 30.7 64 1.6 78
12/31/18 0.05 0.00 60.2 47.3 35.5 63 2.1 64